Time;durP1;ratioP1;P1;durP2;ratioP2;P2;SDS_P1;SDS_P2;PMS_P1;PMS_P2;Temp;Humidity;BMP_temperature;BMP_pressure;BME280_temperature;BME280_humidity;BME280_pressure;Samples;Min_cycle;Max_cycle;Signal;HPM_P1;HPM_P2
2020/12/15 00:01:09;;;;;;;6.70;6.10;;;7.40;99.90;;;;;;5054515;28;20729;-41
2020/12/15 00:03:35;;;;;;;8.00;7.30;;;7.40;99.90;;;;;;5070917;28;20735;-41
2020/12/15 00:06:03;;;;;;;7.17;5.90;;;7.40;99.90;;;;;;5071239;28;20199;-41
2020/12/15 00:08:29;;;;;;;6.93;6.15;;;7.40;99.90;;;;;;5053433;28;20527;-41
2020/12/15 00:10:56;;;;;;;7.50;6.73;;;7.40;99.90;;;;;;5071178;28;20229;-40
2020/12/15 00:13:23;;;;;;;6.68;6.03;;;7.50;99.90;;;;;;5065621;28;20715;-40
2020/12/15 00:15:49;;;;;;;7.53;6.20;;;7.50;99.90;;;;;;5051667;28;20206;-40
2020/12/15 00:18:16;;;;;;;6.90;6.20;;;7.60;99.90;;;;;;5051353;28;20236;-41
2020/12/15 00:20:46;;;;;;;5.97;5.47;;;7.60;99.90;;;;;;5051514;28;20420;-41
2020/12/15 00:23:14;;;;;;;7.30;6.50;;;7.60;99.90;;;;;;5057753;28;20206;-40
2020/12/15 00:25:41;;;;;;;7.10;6.38;;;7.60;99.90;;;;;;5070774;28;20210;-41
2020/12/15 00:28:08;;;;;;;6.57;5.97;;;7.60;99.90;;;;;;5069621;28;20202;-41
2020/12/15 00:30:34;;;;;;;6.93;6.33;;;7.60;99.90;;;;;;5057978;28;20254;-40
2020/12/15 00:33:01;;;;;;;7.20;6.50;;;7.60;99.90;;;;;;5071374;28;20595;-41
2020/12/15 00:35:28;;;;;;;9.95;6.82;;;7.70;99.90;;;;;;5060933;28;20206;-41
2020/12/15 00:37:54;;;;;;;7.03;6.33;;;7.70;99.90;;;;;;5050741;28;20374;-41
2020/12/15 00:40:22;;;;;;;7.77;6.50;;;7.70;99.90;;;;;;5051320;28;20449;-41
2020/12/15 00:42:49;;;;;;;6.73;6.17;;;7.70;99.90;;;;;;5050362;28;20208;-42
2020/12/15 00:45:15;;;;;;;8.50;7.17;;;7.60;99.90;;;;;;5051146;28;20204;-41
2020/12/15 00:47:42;;;;;;;7.18;6.30;;;7.70;99.90;;;;;;5060195;28;20587;-41
2020/12/15 00:50:09;;;;;;;7.15;6.47;;;7.60;99.90;;;;;;5069818;28;20655;-41
2020/12/15 00:52:35;;;;;;;7.60;6.67;;;7.60;99.90;;;;;;5070202;28;20297;-40
2020/12/15 00:55:02;;;;;;;7.60;6.27;;;7.70;99.90;;;;;;5070380;28;20218;-40
2020/12/15 00:57:29;;;;;;;7.03;6.43;;;7.70;99.90;;;;;;5071158;28;20270;-40
2020/12/15 00:59:59;;;;;;;7.63;7.03;;;7.70;99.90;;;;;;5064548;28;20676;-40
2020/12/15 01:02:26;;;;;;;7.67;6.97;;;7.70;99.90;;;;;;5060922;28;20227;-40
2020/12/15 01:04:54;;;;;;;7.80;7.10;;;7.70;99.90;;;;;;5055904;28;20642;-41
2020/12/15 01:07:20;;;;;;;7.47;6.80;;;7.70;99.90;;;;;;5067924;28;20281;-40
2020/12/15 01:09:47;;;;;;;8.17;7.37;;;7.60;99.90;;;;;;5067639;28;20267;-41
2020/12/15 01:12:14;;;;;;;8.10;7.30;;;7.60;99.90;;;;;;5049921;28;20254;-41
2020/12/15 01:14:42;;;;;;;8.85;7.95;;;7.60;99.90;;;;;;5049219;28;20230;-41
2020/12/15 01:17:12;;;;;;;8.43;7.63;;;7.50;99.90;;;;;;5048931;28;20234;-42
2020/12/15 01:19:38;;;;;;;7.97;7.20;;;7.50;99.90;;;;;;5049728;28;20253;-40
2020/12/15 01:22:05;;;;;;;9.00;8.07;;;7.50;99.90;;;;;;5049727;28;20253;-40
2020/12/15 01:24:32;;;;;;;8.93;8.13;;;7.40;99.90;;;;;;5048714;28;20685;-40
2020/12/15 01:27:19;;;;;;;9.10;8.13;;;7.50;99.90;;;;;;5049273;28;20199;-41
2020/12/15 01:29:57;;;;;;;9.35;8.45;;;7.40;99.90;;;;;;5048467;28;20219;-41
2020/12/15 01:32:44;;;;;;;9.43;8.37;;;7.40;99.90;;;;;;5054163;28;20202;-41
2020/12/15 01:35:11;;;;;;;8.80;8.00;;;7.40;99.90;;;;;;5069557;28;20201;-41
2020/12/15 01:37:37;;;;;;;9.70;8.77;;;7.50;99.90;;;;;;5052497;28;20253;-40
2020/12/15 01:40:06;;;;;;;8.80;8.00;;;7.50;99.90;;;;;;5051443;28;20211;-40
2020/12/15 01:42:34;;;;;;;7.07;6.40;;;7.50;99.90;;;;;;5053318;28;20608;-40
2020/12/15 01:45:02;;;;;;;7.63;7.00;;;7.60;99.90;;;;;;5062040;28;20214;-40
2020/12/15 01:47:32;;;;;;;8.77;7.13;;;7.60;99.90;;;;;;5072141;28;20731;-40
2020/12/15 01:49:59;;;;;;;7.13;6.53;;;7.60;99.90;;;;;;5054779;28;20210;-42
2020/12/15 01:52:29;;;;;;;7.72;7.03;;;7.60;99.90;;;;;;5066976;28;20571;-40
2020/12/15 01:55:00;;;;;;;11.80;7.20;;;7.70;99.90;;;;;;5052488;28;20286;-40
2020/12/15 01:58:03;;;;;;;6.78;6.18;;;7.70;99.90;;;;;;5028647;28;20573;-40
2020/12/15 02:00:35;;;;;;;7.20;6.50;;;7.70;99.90;;;;;;5050783;28;20693;-40
2020/12/15 02:03:14;;;;;;;7.45;6.85;;;7.90;99.90;;;;;;5059063;28;20589;-41
2020/12/15 02:06:16;;;;;;;8.27;7.10;;;7.90;99.90;;;;;;5053803;28;20219;-41
2020/12/15 02:09:07;;;;;;;6.75;6.15;;;7.80;99.90;;;;;;5062133;28;20209;-41
2020/12/15 02:11:36;;;;;;;14.40;7.00;;;7.90;99.90;;;;;;5070921;28;20231;-41
2020/12/15 02:14:05;;;;;;;7.25;6.65;;;7.90;99.90;;;;;;5071512;28;20253;-40
2020/12/15 02:16:35;;;;;;;7.35;6.65;;;7.90;99.90;;;;;;5071544;28;20217;-42
2020/12/15 02:19:02;;;;;;;7.47;6.85;;;7.90;99.90;;;;;;5072917;28;20207;-41
2020/12/15 02:21:49;;;;;;;8.37;7.57;;;7.90;99.90;;;;;;5071702;28;20222;-41
2020/12/15 02:24:15;;;;;;;7.00;6.30;;;7.80;99.90;;;;;;5058137;28;20226;-42
2020/12/15 02:26:52;;;;;;;7.43;6.77;;;7.90;99.90;;;;;;5062011;28;20197;-41
2020/12/15 02:29:22;;;;;;;7.65;6.90;;;7.90;99.90;;;;;;5072510;28;20235;-41
2020/12/15 02:31:50;;;;;;;9.60;8.70;;;7.90;99.90;;;;;;5070472;28;20237;-41
2020/12/15 02:34:18;;;;;;;8.83;7.93;;;7.90;99.90;;;;;;5071876;28;20198;-42
2020/12/15 02:36:45;;;;;;;8.27;7.47;;;7.90;99.90;;;;;;5069812;28;20206;-41
2020/12/15 02:39:19;;;;;;;9.53;8.60;;;7.80;99.90;;;;;;5063008;28;20190;-40
2020/12/15 02:42:03;;;;;;;9.52;8.52;;;7.90;99.90;;;;;;5062513;28;20222;-41
2020/12/15 02:44:32;;;;;;;8.13;7.40;;;7.90;99.90;;;;;;5063448;28;20202;-42
2020/12/15 02:47:08;;;;;;;8.83;8.03;;;8.00;99.90;;;;;;5063852;28;20195;-41
2020/12/15 02:49:37;;;;;;;8.10;7.30;;;7.90;99.90;;;;;;5058574;28;20246;-41
2020/12/15 02:52:06;;;;;;;9.30;8.50;;;7.90;99.90;;;;;;5062589;28;20218;-41
2020/12/15 02:54:38;;;;;;;7.40;6.73;;;7.90;99.90;;;;;;5065218;28;20614;-42
2020/12/15 02:57:06;;;;;;;8.40;7.57;;;7.80;99.90;;;;;;5065734;28;20203;-41
2020/12/15 02:59:34;;;;;;;8.73;7.97;;;7.90;99.90;;;;;;5062459;28;20212;-41
2020/12/15 03:02:05;;;;;;;8.83;7.67;;;7.80;99.90;;;;;;5061938;28;20246;-42
2020/12/15 03:04:32;;;;;;;8.82;7.95;;;7.70;99.90;;;;;;5064559;28;20211;-41
2020/12/15 03:06:58;;;;;;;9.17;8.27;;;7.70;99.90;;;;;;5061790;28;20198;-41
2020/12/15 03:09:36;;;;;;;8.63;7.83;;;7.60;99.90;;;;;;5060924;28;20194;-41
2020/12/15 03:12:03;;;;;;;8.07;7.37;;;7.50;99.90;;;;;;5060840;28;20223;-40
2020/12/15 03:14:35;;;;;;;8.80;8.00;;;7.60;99.90;;;;;;5065327;28;20271;-40
2020/12/15 03:17:04;;;;;;;7.97;7.23;;;7.60;99.90;;;;;;5061217;28;20670;-45
2020/12/15 03:19:31;;;;;;;9.17;8.37;;;7.60;99.90;;;;;;5061057;28;20182;-41
2020/12/15 03:22:00;;;;;;;9.80;8.07;;;7.60;99.90;;;;;;5060906;28;20310;-41
2020/12/15 03:24:30;;;;;;;8.47;7.67;;;7.60;99.90;;;;;;5061309;28;20199;-40
2020/12/15 03:26:58;;;;;;;8.70;7.90;;;7.60;99.90;;;;;;5059027;28;20194;-42
2020/12/15 03:29:26;;;;;;;8.47;7.70;;;7.60;99.90;;;;;;5063977;28;20198;-42
2020/12/15 03:31:54;;;;;;;7.87;7.17;;;7.60;99.90;;;;;;5062435;28;20215;-41
2020/12/15 03:34:27;;;;;;;7.57;6.80;;;7.60;99.90;;;;;;5058813;28;20260;-41
2020/12/15 03:36:53;;;;;;;7.70;6.83;;;7.70;99.90;;;;;;5061321;28;20199;-41
2020/12/15 03:39:21;;;;;;;7.40;6.67;;;7.80;99.90;;;;;;5063623;28;20634;-41
2020/12/15 03:41:48;;;;;;;8.17;7.37;;;7.90;99.90;;;;;;5058808;28;20216;-41
2020/12/15 03:44:20;;;;;;;7.82;7.07;;;7.90;99.90;;;;;;5058872;28;20572;-41
2020/12/15 03:47:14;;;;;;;6.70;6.10;;;7.90;99.90;;;;;;5057601;28;20237;-41
2020/12/15 03:49:41;;;;;;;6.27;5.67;;;8.00;99.90;;;;;;5062078;28;20200;-41
2020/12/15 03:52:09;;;;;;;7.70;7.00;;;8.00;99.90;;;;;;5089707;28;20226;-41
2020/12/15 03:54:45;;;;;;;7.37;6.73;;;8.10;99.90;;;;;;5060461;28;20203;-41
2020/12/15 03:57:50;;;;;;;6.87;6.27;;;8.10;99.90;;;;;;4989768;28;20209;-41
2020/12/15 04:00:22;;;;;;;6.80;6.30;;;8.00;99.90;;;;;;5008195;28;20208;-41
2020/12/15 04:03:01;;;;;;;7.83;7.13;;;8.00;99.90;;;;;;5025717;28;20238;-41
2020/12/15 04:05:42;;;;;;;6.80;6.20;;;8.00;99.90;;;;;;5050044;28;20680;-41
2020/12/15 04:08:09;;;;;;;7.15;6.55;;;8.00;99.90;;;;;;5063677;28;20609;-41
2020/12/15 04:10:35;;;;;;;7.90;6.68;;;8.00;99.90;;;;;;5069208;28;20239;-41
2020/12/15 04:13:02;;;;;;;6.73;6.07;;;8.10;99.90;;;;;;5068945;28;20207;-41
2020/12/15 04:15:35;;;;;;;7.07;6.47;;;8.10;99.90;;;;;;5060189;28;20282;-41
2020/12/15 04:18:07;;;;;;;7.60;6.90;;;8.10;99.90;;;;;;5063439;28;20203;-41
2020/12/15 04:20:34;;;;;;;6.53;5.93;;;8.10;99.90;;;;;;5066582;28;20215;-41
2020/12/15 04:23:01;;;;;;;6.47;5.78;;;8.20;99.90;;;;;;5056423;28;20200;-41
2020/12/15 04:25:31;;;;;;;7.20;6.53;;;8.20;99.90;;;;;;5054320;28;20199;-41
2020/12/15 04:27:58;;;;;;;6.70;5.83;;;8.20;99.90;;;;;;5050473;28;20393;-41
2020/12/15 04:30:25;;;;;;;6.93;6.23;;;8.30;99.90;;;;;;5054358;28;20210;-41
2020/12/15 04:32:51;;;;;;;6.80;6.23;;;8.20;99.90;;;;;;5069434;28;20199;-41
2020/12/15 04:35:28;;;;;;;6.32;5.82;;;8.20;99.90;;;;;;5069320;28;20199;-41
2020/12/15 04:37:56;;;;;;;6.07;5.53;;;8.20;99.90;;;;;;5059525;28;20244;-41
2020/12/15 04:40:23;;;;;;;6.23;5.70;;;8.20;99.90;;;;;;5059997;28;20685;-41
2020/12/15 04:42:51;;;;;;;6.97;6.30;;;8.10;99.90;;;;;;5070356;28;20206;-41
2020/12/15 04:45:21;;;;;;;7.27;6.17;;;8.10;99.90;;;;;;5068702;28;20207;-41
2020/12/15 04:48:02;;;;;;;7.32;6.63;;;8.00;99.90;;;;;;5051577;28;20245;-41
2020/12/15 04:50:52;;;;;;;7.30;6.63;;;8.00;99.90;;;;;;5059537;28;20223;-41
2020/12/15 04:53:23;;;;;;;6.83;6.13;;;7.90;99.90;;;;;;5055584;28;20198;-41
2020/12/15 04:56:26;;;;;;;6.97;6.27;;;7.90;99.90;;;;;;5063507;28;20285;-41
2020/12/15 04:58:58;;;;;;;6.63;6.03;;;8.00;99.90;;;;;;5066580;28;20206;-41
2020/12/15 05:01:28;;;;;;;7.93;7.22;;;8.00;99.90;;;;;;5070128;22;20237;-41
2020/12/15 05:04:17;;;;;;;7.60;6.90;;;8.10;99.90;;;;;;5040109;28;20207;-41
2020/12/15 05:07:00;;;;;;;8.27;7.53;;;8.10;99.90;;;;;;5028977;28;20214;-41
2020/12/15 05:09:47;;;;;;;7.97;7.23;;;8.10;99.90;;;;;;5056903;28;20257;-41
2020/12/15 05:12:14;;;;;;;8.30;7.50;;;8.10;99.90;;;;;;5048777;28;20270;-41
2020/12/15 05:14:50;;;;;;;8.33;7.63;;;8.00;99.90;;;;;;5048423;28;20199;-41
2020/12/15 05:17:24;;;;;;;7.33;6.67;;;8.00;99.90;;;;;;5048175;28;20204;-41
2020/12/15 05:20:02;;;;;;;7.47;6.78;;;7.90;99.90;;;;;;5049040;28;20207;-41
2020/12/15 05:22:45;;;;;;;6.78;6.05;;;7.90;99.90;;;;;;5048569;28;20227;-41
2020/12/15 05:25:24;;;;;;;7.97;7.00;;;8.00;99.90;;;;;;5051825;28;20204;-41
2020/12/15 05:27:52;;;;;;;8.00;7.30;;;8.10;99.90;;;;;;5056366;28;20673;-41
2020/12/15 05:30:23;;;;;;;7.43;6.50;;;8.00;99.90;;;;;;5050982;28;20726;-41
2020/12/15 05:33:15;;;;;;;7.60;6.90;;;8.10;99.90;;;;;;5024361;28;20191;-41
2020/12/15 05:36:04;;;;;;;7.60;6.90;;;8.00;99.90;;;;;;5050054;28;20195;-41
2020/12/15 05:39:05;;;;;;;8.20;7.47;;;8.00;99.90;;;;;;5013797;28;20214;-41
2020/12/15 05:42:04;;;;;;;7.47;6.67;;;8.00;99.90;;;;;;5039817;28;20215;-41
2020/12/15 05:44:34;;;;;;;6.73;6.03;;;8.00;99.90;;;;;;5048508;28;20292;-41
2020/12/15 05:47:05;;;;;;;7.93;7.18;;;8.00;99.90;;;;;;5028374;28;20191;-41
2020/12/15 05:49:40;;;;;;;8.27;7.43;;;8.00;99.90;;;;;;5036870;28;20204;-41
2020/12/15 05:52:09;;;;;;;8.73;7.83;;;8.00;99.90;;;;;;5049648;28;20306;-41
2020/12/15 05:54:37;;;;;;;7.57;6.87;;;8.00;99.90;;;;;;5049370;28;20497;-41
2020/12/15 05:57:05;;;;;;;8.33;7.57;;;8.00;99.90;;;;;;5052583;28;20197;-41
2020/12/15 05:59:32;;;;;;;7.70;6.80;;;8.00;99.90;;;;;;5047810;28;20206;-41
2020/12/15 06:02:07;;;;;;;8.80;7.93;;;8.00;99.90;;;;;;5048923;28;20247;-41
2020/12/15 06:04:36;;;;;;;8.43;7.70;;;7.90;99.90;;;;;;5050082;28;20252;-41
2020/12/15 06:07:05;;;;;;;8.40;7.53;;;7.90;99.90;;;;;;5044418;28;20243;-41
2020/12/15 06:09:32;;;;;;;7.70;6.90;;;8.00;99.90;;;;;;5039867;28;20697;-41
2020/12/15 06:12:00;;;;;;;8.50;7.60;;;8.00;99.90;;;;;;5034340;28;20252;-41
2020/12/15 06:14:27;;;;;;;10.73;7.73;;;7.90;99.90;;;;;;5046630;28;20199;-41
2020/12/15 06:16:55;;;;;;;10.57;7.20;;;8.00;99.90;;;;;;5042626;28;20208;-41
2020/12/15 06:19:24;;;;;;;6.57;5.77;;;8.00;99.90;;;;;;5051052;28;20208;-41
2020/12/15 06:21:55;;;;;;;7.07;6.45;;;7.90;99.90;;;;;;5052239;28;20215;-41
2020/12/15 06:24:24;;;;;;;8.40;6.87;;;7.90;99.90;;;;;;5049284;28;20208;-41
2020/12/15 06:26:56;;;;;;;7.53;6.72;;;8.00;99.90;;;;;;5032783;28;20200;-41
2020/12/15 06:29:36;;;;;;;6.97;6.28;;;8.10;99.90;;;;;;5051276;28;20198;-41
2020/12/15 06:32:07;;;;;;;7.87;7.03;;;8.20;99.90;;;;;;5053044;28;20223;-41
2020/12/15 06:34:34;;;;;;;7.93;6.65;;;8.20;99.90;;;;;;5055927;28;20195;-41
2020/12/15 06:37:00;;;;;;;7.00;6.30;;;8.20;99.90;;;;;;5053094;28;20209;-41
2020/12/15 06:39:28;;;;;;;6.73;6.13;;;8.30;99.90;;;;;;5052639;28;20212;-41
2020/12/15 06:41:59;;;;;;;8.50;7.65;;;8.20;99.90;;;;;;5052723;28;20308;-41
2020/12/15 06:44:31;;;;;;;6.93;6.35;;;8.10;99.90;;;;;;5053335;28;20230;-41
2020/12/15 06:46:59;;;;;;;7.83;6.63;;;8.10;99.90;;;;;;5052235;28;20207;-41
2020/12/15 06:49:30;;;;;;;7.67;6.93;;;8.10;99.90;;;;;;5052423;28;20207;-41
2020/12/15 06:51:58;;;;;;;8.85;7.07;;;8.10;99.90;;;;;;5052306;28;20223;-41
2020/12/15 06:54:30;;;;;;;7.90;7.13;;;8.10;99.90;;;;;;5052281;28;20286;-41
2020/12/15 06:57:07;;;;;;;8.83;6.93;;;8.10;99.90;;;;;;5052705;28;20286;-41
2020/12/15 06:59:37;;;;;;;8.73;7.82;;;8.10;99.90;;;;;;5052824;28;20256;-41
2020/12/15 07:02:12;;;;;;;9.10;8.20;;;8.10;99.90;;;;;;5052057;28;20748;-41
2020/12/15 07:04:46;;;;;;;7.78;7.07;;;8.10;99.90;;;;;;5052468;28;20203;-41
2020/12/15 07:07:13;;;;;;;10.77;8.13;;;8.20;99.90;;;;;;5052873;28;20193;-43
2020/12/15 07:09:42;;;;;;;9.52;8.13;;;8.10;99.90;;;;;;5052392;28;20294;-41
2020/12/15 07:12:12;;;;;;;8.55;7.75;;;8.20;99.90;;;;;;5052257;28;20707;-41
2020/12/15 07:14:40;;;;;;;9.60;8.57;;;8.20;99.90;;;;;;5052498;28;20727;-41
2020/12/15 07:17:07;;;;;;;8.50;7.68;;;8.20;99.90;;;;;;5051565;28;20219;-41
2020/12/15 07:19:35;;;;;;;8.90;8.10;;;8.20;99.90;;;;;;5052855;28;20223;-40
2020/12/15 07:22:04;;;;;;;9.57;7.93;;;8.20;99.90;;;;;;5052505;28;20208;-41
2020/12/15 07:24:31;;;;;;;8.10;7.40;;;8.20;99.90;;;;;;5052209;28;20231;-42
2020/12/15 07:26:58;;;;;;;8.70;7.80;;;8.20;99.90;;;;;;5040598;28;20192;-41
2020/12/15 07:29:25;;;;;;;9.97;8.97;;;8.20;99.90;;;;;;5047702;28;20205;-42
2020/12/15 07:31:51;;;;;;;9.10;7.87;;;8.20;99.90;;;;;;5052373;28;20223;-41
2020/12/15 07:34:18;;;;;;;9.33;8.33;;;8.10;99.90;;;;;;5052525;28;20701;-41
2020/12/15 07:36:48;;;;;;;10.27;8.43;;;8.20;99.90;;;;;;5051430;28;20781;-42
2020/12/15 07:39:16;;;;;;;9.00;8.10;;;8.20;99.90;;;;;;5052482;28;20222;-40
2020/12/15 07:41:43;;;;;;;10.50;9.43;;;8.00;99.90;;;;;;5055081;28;20211;-41
2020/12/15 07:44:11;;;;;;;9.63;8.67;;;7.90;99.90;;;;;;5067138;28;20198;-41
2020/12/15 07:46:43;;;;;;;9.63;8.73;;;7.90;99.90;;;;;;5053303;28;20203;-42
2020/12/15 07:49:10;;;;;;;9.63;8.63;;;7.90;99.90;;;;;;5050989;28;20192;-41
2020/12/15 07:51:38;;;;;;;10.50;8.95;;;7.90;99.90;;;;;;5048020;28;20221;-42
2020/12/15 07:54:06;;;;;;;9.77;8.87;;;7.90;99.90;;;;;;5036995;28;20207;-42
2020/12/15 07:56:32;;;;;;;9.97;8.93;;;7.90;99.90;;;;;;5049212;28;20235;-41
2020/12/15 07:59:00;;;;;;;8.30;7.50;;;8.00;99.90;;;;;;5034719;28;20207;-41
2020/12/15 08:01:28;;;;;;;10.60;9.33;;;8.10;99.90;;;;;;5033015;28;20658;-41
2020/12/15 08:04:06;;;;;;;9.33;8.43;;;8.10;99.90;;;;;;5040763;28;20250;-41
2020/12/15 08:06:34;;;;;;;9.17;8.27;;;8.10;99.90;;;;;;5039813;28;20263;-41
2020/12/15 08:09:01;;;;;;;10.70;9.10;;;7.90;99.90;;;;;;5049437;28;20720;-40
2020/12/15 08:11:28;;;;;;;9.98;8.95;;;7.80;99.90;;;;;;5050945;28;20247;-41
2020/12/15 08:13:56;;;;;;;11.93;9.80;;;7.90;99.90;;;;;;5051849;28;20196;-41
2020/12/15 08:16:22;;;;;;;10.97;9.83;;;8.00;99.90;;;;;;5052280;28;20207;-41
2020/12/15 08:18:49;;;;;;;11.63;10.40;;;8.00;99.90;;;;;;5050929;28;20238;-40
2020/12/15 08:21:19;;;;;;;10.20;8.77;;;8.00;99.90;;;;;;5050552;28;20359;-40
2020/12/15 08:23:51;;;;;;;11.13;9.27;;;8.10;99.90;;;;;;5051482;28;20551;-40
2020/12/15 08:26:18;;;;;;;9.97;8.03;;;8.10;99.90;;;;;;5051333;28;20207;-41
2020/12/15 08:28:46;;;;;;;10.82;9.35;;;8.20;99.90;;;;;;5050730;28;20196;-42
2020/12/15 08:31:12;;;;;;;10.00;8.60;;;8.20;99.90;;;;;;5051300;28;20223;-42
2020/12/15 08:33:39;;;;;;;9.40;8.48;;;8.20;99.90;;;;;;5050235;28;20196;-41
2020/12/15 08:36:10;;;;;;;9.82;8.82;;;8.20;99.90;;;;;;5050938;28;20211;-40
2020/12/15 08:38:42;;;;;;;10.13;9.13;;;8.20;99.90;;;;;;5053691;28;20230;-49
2020/12/15 08:41:13;;;;;;;10.00;8.63;;;8.20;99.90;;;;;;5059522;28;20219;-40
2020/12/15 08:43:40;;;;;;;14.18;9.48;;;8.20;99.90;;;;;;5055831;28;20206;-41
2020/12/15 08:46:15;;;;;;;10.37;9.30;;;8.00;99.90;;;;;;5049287;28;20201;-41
2020/12/15 08:48:42;;;;;;;10.77;9.67;;;8.00;99.90;;;;;;5050014;28;20214;-42
2020/12/15 08:51:13;;;;;;;9.95;8.95;;;8.10;99.90;;;;;;5049982;28;20298;-41
2020/12/15 08:53:40;;;;;;;11.65;10.38;;;8.10;99.90;;;;;;5050512;28;20757;-41
2020/12/15 08:56:13;;;;;;;11.15;10.15;;;7.90;99.90;;;;;;5050605;28;20257;-41
2020/12/15 08:58:41;;;;;;;11.35;9.82;;;7.70;99.90;;;;;;5049966;28;20226;-42
2020/12/15 09:01:08;;;;;;;11.97;10.77;;;7.80;99.90;;;;;;5050022;28;20713;-41
2020/12/15 09:03:45;;;;;;;10.18;9.27;;;7.80;99.90;;;;;;5051149;28;20218;-41
2020/12/15 09:06:11;;;;;;;12.90;10.20;;;7.70;99.90;;;;;;5045876;28;20250;-41
2020/12/15 09:08:47;;;;;;;11.97;10.43;;;7.80;99.90;;;;;;5047180;28;20741;-40
2020/12/15 09:11:15;;;;;;;13.23;10.70;;;7.80;99.90;;;;;;5050784;28;20283;-42
2020/12/15 09:13:53;;;;;;;11.90;10.17;;;7.80;99.90;;;;;;5062378;28;20200;-40
2020/12/15 09:16:29;;;;;;;13.10;11.27;;;7.90;99.90;;;;;;5062305;28;20202;-42
2020/12/15 09:18:57;;;;;;;12.10;10.88;;;7.90;99.90;;;;;;5057342;28;20214;-41
2020/12/15 09:21:24;;;;;;;15.13;11.83;;;7.90;99.90;;;;;;5050288;28;20587;-42
2020/12/15 09:23:53;;;;;;;12.43;11.13;;;8.00;99.90;;;;;;5048814;28;20195;-40
2020/12/15 09:26:22;;;;;;;10.90;9.85;;;8.00;99.90;;;;;;5050825;28;20215;-41
2020/12/15 09:28:50;;;;;;;11.33;9.87;;;8.00;99.90;;;;;;5049937;28;20706;-41
2020/12/15 09:31:18;;;;;;;12.53;11.27;;;8.00;99.90;;;;;;5050184;28;20214;-41
2020/12/15 09:33:45;;;;;;;10.80;9.73;;;8.00;99.90;;;;;;5050457;28;20226;-41
2020/12/15 09:36:14;;;;;;;11.77;10.30;;;8.00;99.90;;;;;;5050298;28;20199;-41
2020/12/15 09:38:40;;;;;;;11.02;9.90;;;8.10;99.90;;;;;;5052994;28;20226;-42
2020/12/15 09:41:07;;;;;;;10.87;9.77;;;8.30;99.90;;;;;;5043434;28;20736;-41
2020/12/15 09:43:34;;;;;;;11.73;10.63;;;8.40;99.90;;;;;;5040267;28;20282;-41
2020/12/15 09:46:02;;;;;;;11.73;10.60;;;8.50;99.90;;;;;;5036868;28;20204;-42
2020/12/15 09:48:28;;;;;;;10.48;9.38;;;8.70;99.90;;;;;;5047267;28;20209;-42
2020/12/15 09:50:55;;;;;;;10.90;9.90;;;8.80;99.90;;;;;;5043702;28;20235;-41
2020/12/15 09:53:22;;;;;;;12.38;10.73;;;8.90;99.90;;;;;;5043765;28;20637;-41
2020/12/15 09:55:49;;;;;;;12.55;10.13;;;8.90;99.90;;;;;;5042085;28;20290;-41
2020/12/15 09:58:15;;;;;;;13.18;11.65;;;8.90;99.90;;;;;;5048527;28;20239;-41
2020/12/15 10:00:42;;;;;;;11.10;10.00;;;8.80;99.90;;;;;;5048426;28;20326;-42
2020/12/15 10:03:08;;;;;;;9.80;8.90;;;8.80;99.90;;;;;;5054186;28;20264;-41
2020/12/15 10:05:35;;;;;;;10.60;9.50;;;8.70;99.90;;;;;;5054576;28;20187;-41
2020/12/15 10:08:01;;;;;;;10.98;9.90;;;8.60;99.90;;;;;;5053910;28;20688;-41
2020/12/15 10:10:29;;;;;;;12.27;9.65;;;8.70;99.90;;;;;;5054221;28;20197;-41
2020/12/15 10:12:55;;;;;;;10.15;9.02;;;8.70;99.90;;;;;;5051962;28;20318;-41
2020/12/15 10:15:24;;;;;;;10.98;9.85;;;8.70;99.90;;;;;;5053451;28;20204;-41
2020/12/15 10:17:52;;;;;;;9.60;8.60;;;8.70;99.90;;;;;;5041016;28;20659;-40
2020/12/15 10:20:18;;;;;;;11.63;10.47;;;8.70;99.90;;;;;;5048120;28;20204;-41
2020/12/15 10:22:45;;;;;;;10.57;9.57;;;8.80;99.90;;;;;;5049767;28;20220;-41
2020/12/15 10:25:11;;;;;;;11.93;10.75;;;8.80;99.90;;;;;;5045373;28;20220;-40
2020/12/15 10:27:38;;;;;;;12.90;9.20;;;8.80;99.90;;;;;;5050948;28;20230;-42
2020/12/15 10:30:05;;;;;;;11.52;9.68;;;8.80;99.90;;;;;;5052701;28;20278;-40
2020/12/15 10:32:32;;;;;;;11.17;9.37;;;8.90;99.90;;;;;;5052884;28;20250;-41
2020/12/15 10:34:58;;;;;;;11.10;9.48;;;8.90;99.90;;;;;;5053652;28;20207;-40
2020/12/15 10:37:25;;;;;;;9.93;8.93;;;8.90;99.90;;;;;;5048691;28;20649;-42
2020/12/15 10:39:52;;;;;;;10.43;8.67;;;9.00;99.90;;;;;;5053484;28;20303;-42
2020/12/15 10:44:48;;;;;;;11.23;8.38;;;9.20;99.90;;;;;;5048795;28;20303;-42
2020/12/15 10:47:15;;;;;;;9.80;8.80;;;9.20;99.90;;;;;;5037703;28;20779;-42
2020/12/15 10:49:41;;;;;;;10.23;9.18;;;9.30;99.90;;;;;;5044044;28;20204;-42
2020/12/15 10:52:08;;;;;;;9.85;8.90;;;9.30;99.90;;;;;;5051662;28;20295;-42
2020/12/15 10:54:35;;;;;;;11.30;9.85;;;9.30;99.90;;;;;;5051559;28;20207;-41
2020/12/15 10:57:01;;;;;;;10.18;8.82;;;9.30;99.90;;;;;;5051297;28;20219;-41
2020/12/15 10:59:29;;;;;;;10.68;9.20;;;9.30;99.90;;;;;;5053227;28;20200;-41
2020/12/15 11:01:56;;;;;;;8.30;7.55;;;9.30;99.90;;;;;;5051182;28;20223;-41
2020/12/15 11:04:23;;;;;;;10.20;9.15;;;9.40;99.90;;;;;;5038064;28;20767;-43
2020/12/15 11:06:50;;;;;;;9.13;8.23;;;9.40;99.90;;;;;;5034071;28;20295;-42
2020/12/15 11:09:16;;;;;;;8.68;7.80;;;9.50;99.90;;;;;;5033941;28;20200;-42
2020/12/15 11:11:47;;;;;;;9.45;8.48;;;9.60;99.90;;;;;;5032637;28;20285;-42
2020/12/15 11:14:14;;;;;;;11.57;8.97;;;9.50;99.90;;;;;;5033086;28;20230;-42
2020/12/15 11:16:40;;;;;;;9.68;8.02;;;9.50;99.90;;;;;;5033212;28;20578;-41
2020/12/15 11:19:08;;;;;;;10.25;9.35;;;9.50;99.90;;;;;;5032508;28;20242;-42
2020/12/15 11:21:34;;;;;;;10.68;9.57;;;9.30;99.90;;;;;;5032455;28;20290;-41
2020/12/15 11:24:01;;;;;;;9.65;8.30;;;9.30;99.90;;;;;;5033536;28;20330;-41
2020/12/15 11:26:27;;;;;;;11.70;10.07;;;9.20;99.90;;;;;;5033910;28;20291;-42
2020/12/15 11:28:54;;;;;;;9.88;8.73;;;9.30;99.90;;;;;;5032378;28;20300;-41
2020/12/15 11:31:21;;;;;;;9.55;8.50;;;9.30;99.90;;;;;;5032316;28;20585;-41
2020/12/15 11:33:47;;;;;;;10.07;8.95;;;9.40;99.90;;;;;;5032423;28;20204;-41
2020/12/15 11:36:15;;;;;;;7.95;7.25;;;9.40;99.90;;;;;;5032263;28;20204;-42
2020/12/15 11:38:44;;;;;;;8.85;7.45;;;9.40;99.90;;;;;;5044789;28;20298;-41
2020/12/15 11:41:11;;;;;;;8.98;7.70;;;9.50;99.90;;;;;;5051368;28;20698;-42
2020/12/15 11:43:37;;;;;;;9.25;8.35;;;9.60;99.90;;;;;;5048234;28;20186;-41
2020/12/15 11:46:04;;;;;;;8.30;7.57;;;9.60;99.90;;;;;;5044111;28;20194;-43
2020/12/15 11:48:30;;;;;;;8.77;7.88;;;9.70;99.90;;;;;;5039667;28;20287;-42
2020/12/15 11:50:57;;;;;;;9.55;8.55;;;9.80;99.90;;;;;;5038854;28;20232;-42
2020/12/15 11:53:29;;;;;;;8.93;8.05;;;9.80;99.90;;;;;;5051669;28;20263;-43
2020/12/15 11:55:57;;;;;;;8.75;7.95;;;9.90;99.90;;;;;;5048984;28;20625;-42
2020/12/15 11:58:27;;;;;;;8.43;7.63;;;9.90;99.90;;;;;;5052467;28;20199;-41
2020/12/15 12:00:53;;;;;;;9.52;8.63;;;9.90;99.90;;;;;;5049016;28;20753;-42
2020/12/15 12:03:20;;;;;;;7.75;7.05;;;9.90;99.90;;;;;;5035372;28;20628;-41
2020/12/15 12:05:46;;;;;;;8.98;7.78;;;9.90;99.90;;;;;;5038872;28;20209;-43
2020/12/15 12:08:13;;;;;;;8.57;7.15;;;9.90;99.90;;;;;;5041622;28;20196;-42
2020/12/15 12:10:40;;;;;;;8.40;7.60;;;9.90;99.90;;;;;;5042970;28;20254;-42
2020/12/15 12:13:07;;;;;;;8.15;6.63;;;9.90;99.90;;;;;;5049375;28;20228;-42
2020/12/15 12:15:33;;;;;;;7.38;6.68;;;10.00;99.90;;;;;;5047626;28;20689;-42
2020/12/15 12:18:00;;;;;;;8.30;7.38;;;9.90;99.90;;;;;;5036359;28;20211;-42
2020/12/15 12:20:29;;;;;;;7.78;6.47;;;9.90;99.90;;;;;;5043053;28;20899;-41
2020/12/15 12:22:58;;;;;;;6.45;5.85;;;9.90;99.90;;;;;;5046591;28;20552;-41
2020/12/15 12:25:24;;;;;;;6.80;6.20;;;10.00;99.90;;;;;;5035974;28;20188;-41
2020/12/15 12:27:52;;;;;;;6.85;6.10;;;10.10;99.90;;;;;;5039366;28;20295;-42
2020/12/15 12:30:21;;;;;;;6.80;6.10;;;10.10;99.90;;;;;;5051485;28;20470;-42
2020/12/15 12:32:47;;;;;;;7.90;6.40;;;10.10;99.90;;;;;;5034602;28;20664;-42
2020/12/15 12:35:14;;;;;;;7.30;6.60;;;10.20;99.90;;;;;;5035858;28;20652;-42
2020/12/15 12:37:40;;;;;;;7.18;6.57;;;10.20;99.90;;;;;;5043910;28;20197;-42
2020/12/15 12:40:07;;;;;;;6.78;6.07;;;10.10;99.90;;;;;;5042119;28;20213;-42
2020/12/15 12:42:33;;;;;;;7.05;6.35;;;10.10;99.90;;;;;;5042634;28;20242;-41
2020/12/15 12:45:01;;;;;;;7.07;6.47;;;10.30;99.90;;;;;;5038757;28;20685;-42
2020/12/15 12:47:27;;;;;;;6.72;6.20;;;10.30;99.90;;;;;;5040264;28;20205;-42
2020/12/15 12:49:54;;;;;;;7.35;6.63;;;10.30;99.90;;;;;;5041831;28;20361;-42
2020/12/15 12:52:20;;;;;;;6.25;5.78;;;10.30;99.90;;;;;;5041558;28;20590;-42
2020/12/15 12:54:47;;;;;;;5.83;5.33;;;10.30;99.90;;;;;;5041456;28;20644;-42
2020/12/15 12:57:13;;;;;;;6.93;6.18;;;10.20;99.90;;;;;;5035460;28;20190;-42
2020/12/15 12:59:40;;;;;;;6.22;5.68;;;10.20;99.90;;;;;;5041125;28;20225;-42
2020/12/15 13:02:08;;;;;;;7.00;6.07;;;10.20;99.90;;;;;;5038387;28;20317;-41
2020/12/15 13:04:35;;;;;;;6.40;5.80;;;10.30;99.90;;;;;;5039985;28;20272;-43
2020/12/15 13:07:02;;;;;;;7.22;6.63;;;10.20;99.90;;;;;;5039836;28;20199;-42
2020/12/15 13:09:29;;;;;;;6.93;6.32;;;10.10;99.90;;;;;;5023328;28;20282;-41